createdAt,value
2024-03-28T00:00:12.134Z,92444.00
2024-03-28T00:01:12.146Z,92439.00
2024-03-28T00:02:12.200Z,92437.00
2024-03-28T00:03:12.267Z,92438.00
2024-03-28T00:04:12.224Z,92441.00
2024-03-28T00:05:12.232Z,92445.00
2024-03-28T00:06:12.281Z,92451.00
2024-03-28T00:07:12.294Z,92456.00
2024-03-28T00:08:12.296Z,92461.00
2024-03-28T00:09:12.351Z,92463.00
2024-03-28T00:10:12.382Z,92465.00
2024-03-28T00:11:12.366Z,92464.00
2024-03-28T00:12:12.373Z,92464.00
2024-03-28T00:13:12.440Z,92466.00
2024-03-28T00:14:12.480Z,92465.00
2024-03-28T00:15:12.445Z,92470.00
2024-03-28T00:16:12.459Z,92476.00
2024-03-28T00:17:12.460Z,92481.00
2024-03-28T00:18:12.460Z,92489.00
2024-03-28T00:19:12.586Z,92488.00
2024-03-28T00:20:12.424Z,92487.00
2024-03-28T00:21:12.730Z,92484.00
2024-03-28T00:22:12.469Z,92485.00
2024-03-28T00:23:12.442Z,92486.00
2024-03-28T00:24:12.508Z,92489.00
2024-03-28T00:25:12.527Z,92494.00
2024-03-28T00:26:12.454Z,92496.00
2024-03-28T00:27:12.472Z,92498.00
2024-03-28T00:28:12.512Z,92496.00
2024-03-28T00:29:12.429Z,92494.00
2024-03-28T00:30:12.500Z,92491.00
2024-03-28T00:31:12.565Z,92491.00
2024-03-28T00:32:12.455Z,92487.00
2024-03-28T00:33:14.013Z,92484.00
2024-03-28T00:34:12.690Z,92481.00
2024-03-28T00:35:12.690Z,92480.00
2024-03-28T00:36:12.685Z,92480.00
2024-03-28T00:37:12.752Z,92484.00
2024-03-28T00:38:12.742Z,92489.00
2024-03-28T00:39:12.822Z,92488.00
2024-03-28T00:40:12.834Z,92490.00
2024-03-28T00:41:12.871Z,92495.00
2024-03-28T00:42:12.829Z,92497.00
2024-03-28T00:43:12.896Z,92502.00
2024-03-28T00:44:12.902Z,92506.00
2024-03-28T00:45:12.902Z,92505.00
2024-03-28T00:46:12.993Z,92509.00
2024-03-28T00:47:12.986Z,92508.00
2024-03-28T00:48:12.978Z,92511.00
2024-03-28T00:49:13.055Z,92508.00
2024-03-28T00:50:13.039Z,92506.00
2024-03-28T00:51:13.093Z,92504.00
2024-03-28T00:52:13.131Z,92503.00
2024-03-28T00:53:13.125Z,92501.00
2024-03-28T00:54:13.126Z,92501.00
2024-03-28T00:55:13.184Z,92498.00
2024-03-28T00:56:13.179Z,92498.00
2024-03-28T00:57:13.235Z,92502.00
2024-03-28T00:58:13.271Z,92506.00
2024-03-28T00:59:13.257Z,92510.00
2024-03-28T01:00:13.313Z,92513.00
2024-03-28T01:01:13.366Z,92515.00
2024-03-28T01:02:13.333Z,92516.00
2024-03-28T01:03:13.395Z,92518.00
2024-03-28T01:04:13.397Z,92516.00
2024-03-28T01:05:13.443Z,92517.00
2024-03-28T01:06:13.461Z,92514.00
2024-03-28T01:07:13.528Z,92513.00
2024-03-28T01:08:13.531Z,92515.00
2024-03-28T01:09:13.572Z,92515.00
2024-03-28T01:10:13.664Z,92519.00
2024-03-28T01:11:13.581Z,92518.00
2024-03-28T01:12:13.646Z,92521.00
2024-03-28T01:13:13.671Z,92519.00
2024-03-28T01:14:13.697Z,92515.00
2024-03-28T01:15:13.724Z,92510.00
2024-03-28T01:16:13.733Z,92508.00
2024-03-28T01:17:13.790Z,92503.00
2024-03-28T01:18:13.797Z,92501.00
2024-03-28T01:19:13.864Z,92497.00
2024-03-28T01:20:13.873Z,92498.00
2024-03-28T01:21:13.933Z,92501.00
2024-03-28T01:22:13.949Z,92502.00
2024-03-28T01:23:13.980Z,92499.00
2024-03-28T01:24:14.041Z,92497.00
2024-03-28T01:25:14.076Z,92494.00
2024-03-28T01:26:14.067Z,92492.00
2024-03-28T01:27:14.121Z,92497.00
2024-03-28T01:28:14.154Z,92500.00
2024-03-28T01:29:14.192Z,92502.00
2024-03-28T01:30:14.308Z,92505.00
2024-03-28T01:31:14.386Z,92505.00
2024-03-28T01:32:14.297Z,92502.00
2024-03-28T01:33:14.308Z,92498.00
2024-03-28T01:34:14.337Z,92495.00
2024-03-28T01:35:14.468Z,92490.00
2024-03-28T01:36:14.475Z,92489.00
2024-03-28T01:37:14.551Z,92493.00
2024-03-28T01:38:14.595Z,92494.00
2024-03-28T01:39:14.666Z,92499.00
2024-03-28T01:40:14.614Z,92501.00
2024-03-28T01:41:14.740Z,92507.00
2024-03-28T01:42:14.680Z,92511.00
2024-03-28T01:43:14.722Z,92511.00
2024-03-28T01:44:14.747Z,92510.00
2024-03-28T01:45:14.798Z,92512.00
2024-03-28T01:46:20.071Z,92512.00
2024-03-28T01:47:35.367Z,92510.00
2024-03-28T01:48:15.894Z,92511.00
2024-03-28T01:49:14.849Z,92507.00
2024-03-28T01:50:14.835Z,92504.00
2024-03-28T01:51:14.850Z,92502.00
2024-03-28T01:52:14.872Z,92500.00
2024-03-28T01:53:15.263Z,92499.00
2024-03-28T01:54:14.806Z,92502.00
2024-03-28T01:55:14.821Z,92507.00
2024-03-28T01:56:14.824Z,92507.00
2024-03-28T01:57:15.222Z,92504.00
2024-03-28T01:58:14.845Z,92503.00
2024-03-28T01:59:14.832Z,92506.00
2024-03-28T02:00:14.863Z,92507.00
2024-03-28T02:01:14.862Z,92504.00
2024-03-28T02:02:14.867Z,92501.00
2024-03-28T02:03:14.826Z,92498.00
2024-03-28T02:04:14.831Z,92495.00
2024-03-28T02:05:14.843Z,92493.00
2024-03-28T02:06:14.857Z,92490.00
2024-03-28T02:07:14.896Z,92491.00
2024-03-28T02:08:14.857Z,92492.00
2024-03-28T02:09:14.869Z,92490.00
2024-03-28T02:10:15.759Z,92489.00
2024-03-28T02:11:14.854Z,92490.00
2024-03-28T02:12:14.824Z,92490.00
2024-03-28T02:13:14.862Z,92492.00
2024-03-28T02:14:14.847Z,92491.00
2024-03-28T02:15:14.845Z,92492.00
2024-03-28T02:16:14.852Z,92493.00
2024-03-28T02:17:14.853Z,92497.00
2024-03-28T02:18:15.274Z,92498.00
2024-03-28T02:19:14.870Z,92502.00
2024-03-28T02:20:14.872Z,92504.00
2024-03-28T02:21:14.859Z,92499.00
2024-03-28T02:22:14.854Z,92493.00
2024-03-28T02:23:14.887Z,92492.00
2024-03-28T02:24:14.907Z,92495.00
2024-03-28T02:25:14.868Z,92494.00
2024-03-28T02:26:14.893Z,92497.00
2024-03-28T02:27:14.995Z,92502.00
2024-03-28T02:28:14.997Z,92503.00
2024-03-28T02:29:15.000Z,92502.00
2024-03-28T02:30:15.049Z,92501.00
2024-03-28T02:31:15.065Z,92503.00
2024-03-28T02:32:15.130Z,92502.00
2024-03-28T02:33:15.126Z,92502.00
2024-03-28T02:34:15.181Z,92501.00
2024-03-28T02:35:15.246Z,92504.00
2024-03-28T02:36:15.225Z,92507.00
2024-03-28T02:37:15.286Z,92508.00
2024-03-28T02:38:15.310Z,92509.00
2024-03-28T02:39:15.386Z,92508.00
2024-03-28T02:40:15.458Z,92505.00
2024-03-28T02:41:15.430Z,92509.00
2024-03-28T02:42:15.499Z,92510.00
2024-03-28T02:43:15.570Z,92511.00
2024-03-28T02:44:15.545Z,92515.00
2024-03-28T02:45:16.864Z,92516.00
2024-03-28T02:46:15.643Z,92519.00
2024-03-28T02:47:15.673Z,92517.00
2024-03-28T02:48:15.752Z,92515.00
2024-03-28T02:49:15.804Z,92518.00
2024-03-28T02:50:15.806Z,92521.00
2024-03-28T02:51:15.814Z,92518.00
2024-03-28T02:52:15.901Z,92520.00
2024-03-28T02:53:15.916Z,92521.00
2024-03-28T02:54:15.938Z,92521.00
2024-03-28T02:55:15.995Z,92522.00
2024-03-28T02:56:16.037Z,92526.00
2024-03-28T02:57:16.049Z,92528.00
2024-03-28T02:58:16.136Z,92520.00
2024-03-28T02:59:16.263Z,92510.00
2024-03-28T03:00:16.185Z,92516.00
2024-03-28T03:01:16.300Z,92515.00
2024-03-28T03:02:16.269Z,92513.00
2024-03-28T03:03:16.357Z,92510.00
2024-03-28T03:04:16.377Z,92514.00
2024-03-28T03:05:16.382Z,92518.00
2024-03-28T03:06:16.492Z,92526.00
2024-03-28T03:07:16.506Z,92526.00
2024-03-28T03:08:16.577Z,92523.00
2024-03-28T03:09:16.605Z,92516.00
2024-03-28T03:10:16.699Z,92523.00
2024-03-28T03:11:16.728Z,92533.00
2024-03-28T03:12:16.790Z,92532.00
2024-03-28T03:13:16.804Z,92524.00
2024-03-28T03:14:16.848Z,92526.00
2024-03-28T03:15:16.910Z,92526.00
2024-03-28T03:16:17.327Z,92532.00
2024-03-28T03:17:17.010Z,92533.00
2024-03-28T03:18:17.016Z,92531.00
2024-03-28T03:19:17.092Z,92531.00
2024-03-28T03:20:17.147Z,92524.00
2024-03-28T03:21:17.304Z,92520.00
2024-03-28T03:22:17.220Z,92513.00
2024-03-28T03:23:17.277Z,92519.00
2024-03-28T03:24:17.319Z,92522.00
2024-03-28T03:25:17.369Z,92519.00
2024-03-28T03:26:17.419Z,92519.00
2024-03-28T03:27:17.470Z,92516.00
2024-03-28T03:28:17.517Z,92504.00
2024-03-28T03:29:17.564Z,92506.00
2024-03-28T03:30:17.615Z,92507.00
2024-03-28T03:31:17.673Z,92512.00
2024-03-28T03:32:17.742Z,92509.00
2024-03-28T03:33:17.747Z,92510.00
2024-03-28T03:34:17.815Z,92498.00
2024-03-28T03:35:17.844Z,92498.00
2024-03-28T03:36:17.922Z,92486.00
2024-03-28T03:37:17.974Z,92491.00
2024-03-28T03:38:18.019Z,92511.00
2024-03-28T03:39:18.039Z,92523.00
2024-03-28T03:40:18.171Z,92525.00
2024-03-28T03:41:18.158Z,92522.00
2024-03-28T03:42:18.209Z,92511.00
2024-03-28T03:43:18.284Z,92502.00
2024-03-28T03:44:18.355Z,92517.00
2024-03-28T03:45:18.504Z,92521.00
2024-03-28T03:46:18.532Z,92517.00
2024-03-28T03:47:18.557Z,92507.00
2024-03-28T03:48:18.744Z,92516.00
2024-03-28T03:49:18.905Z,92523.00
2024-03-28T03:50:18.976Z,92521.00
2024-03-28T03:51:19.023Z,92518.00
2024-03-28T03:52:19.162Z,92517.00
2024-03-28T03:53:19.143Z,92517.00
2024-03-28T03:54:19.217Z,92525.00
2024-03-28T03:55:19.303Z,92522.00
2024-03-28T03:56:19.276Z,92515.00
2024-03-28T03:57:19.327Z,92526.00
2024-03-28T03:58:19.457Z,92530.00
2024-03-28T03:59:19.448Z,92532.00
2024-03-28T04:00:19.513Z,92536.00
2024-03-28T04:01:19.592Z,92540.00
2024-03-28T04:02:19.628Z,92536.00
2024-03-28T04:03:19.671Z,92535.00
2024-03-28T04:04:19.768Z,92533.00
2024-03-28T04:05:19.779Z,92537.00
2024-03-28T04:06:19.803Z,92524.00
2024-03-28T04:07:19.923Z,92540.00
2024-03-28T04:08:19.941Z,92542.00
2024-03-28T04:09:19.961Z,92544.00
2024-03-28T04:10:20.047Z,92545.00
2024-03-28T04:11:20.080Z,92544.00
2024-03-28T04:12:20.129Z,92544.00
2024-03-28T04:13:20.253Z,92545.00
2024-03-28T04:14:20.270Z,92554.00
2024-03-28T04:15:20.339Z,92546.00
2024-03-28T04:16:20.425Z,92550.00
2024-03-28T04:17:20.463Z,92554.00
2024-03-28T04:18:20.561Z,92549.00
2024-03-28T04:19:20.572Z,92547.00
2024-03-28T04:20:20.650Z,92556.00
2024-03-28T04:21:20.664Z,92552.00
2024-03-28T04:22:20.777Z,92542.00
2024-03-28T04:23:20.799Z,92545.00
2024-03-28T04:24:20.840Z,92558.00
2024-03-28T04:25:28.760Z,92560.00
2024-03-28T04:26:28.916Z,92568.00
2024-03-28T04:27:29.018Z,92565.00
2024-03-28T04:28:29.170Z,92563.00
2024-03-28T04:29:29.652Z,92567.00
2024-03-28T04:30:29.340Z,92566.00
2024-03-28T04:31:37.246Z,92564.00
2024-03-28T04:32:37.397Z,92559.00
2024-03-28T04:33:37.567Z,92564.00
2024-03-28T04:34:37.719Z,92567.00
2024-03-28T04:35:37.907Z,92566.00
2024-03-28T04:36:38.058Z,92569.00
2024-03-28T04:37:38.202Z,92565.00
2024-03-28T04:38:38.336Z,92568.00
2024-03-28T04:39:38.528Z,92577.00
2024-03-28T04:40:38.629Z,92582.00
2024-03-28T04:41:38.669Z,92585.00
2024-03-28T04:42:38.872Z,92590.00
2024-03-28T04:43:39.473Z,92582.00
2024-03-28T04:44:38.894Z,92571.00
2024-03-28T04:45:38.878Z,92577.00
2024-03-28T04:46:38.924Z,92563.00
2024-03-28T04:47:39.267Z,92574.00
2024-03-28T04:48:38.893Z,92571.00
2024-03-28T04:49:38.905Z,92581.00
2024-03-28T04:50:38.915Z,92580.00
2024-03-28T04:51:38.916Z,92586.00
2024-03-28T04:52:38.951Z,92579.00
2024-03-28T04:53:38.925Z,92586.00
2024-03-28T04:54:38.886Z,92588.00
2024-03-28T04:55:38.899Z,92583.00
2024-03-28T04:56:38.893Z,92577.00
2024-03-28T04:57:38.879Z,92580.00
2024-03-28T04:58:38.893Z,92581.00
2024-03-28T04:59:38.903Z,92580.00
2024-03-28T05:00:38.911Z,92580.00
2024-03-28T05:01:38.930Z,92567.00
2024-03-28T05:02:38.920Z,92574.00
2024-03-28T05:03:38.895Z,92582.00
2024-03-28T05:04:38.899Z,92591.00
2024-03-28T05:05:38.896Z,92589.00
2024-03-28T05:06:38.875Z,92591.00
2024-03-28T05:07:38.929Z,92590.00
2024-03-28T05:08:38.906Z,92592.00
2024-03-28T05:09:38.939Z,92592.00
2024-03-28T05:10:38.952Z,92591.00
2024-03-28T05:11:39.002Z,92587.00
2024-03-28T05:12:39.024Z,92583.00
2024-03-28T05:13:39.177Z,92587.00
2024-03-28T05:14:39.192Z,92593.00
2024-03-28T05:15:39.262Z,92600.00
2024-03-28T05:16:39.364Z,92594.00
2024-03-28T05:17:39.358Z,92593.00
2024-03-28T05:18:39.472Z,92589.00
2024-03-28T05:19:39.538Z,92590.00
2024-03-28T05:20:39.567Z,92591.00
2024-03-28T05:21:39.654Z,92590.00
2024-03-28T05:22:39.766Z,92592.00
2024-03-28T05:23:39.851Z,92597.00
2024-03-28T05:24:39.873Z,92596.00
2024-03-28T05:25:39.919Z,92584.00
2024-03-28T05:26:39.996Z,92575.00
2024-03-28T05:27:40.127Z,92582.00
2024-03-28T05:28:40.153Z,92585.00
2024-03-28T05:29:40.299Z,92582.00
2024-03-28T05:30:40.340Z,92576.00
2024-03-28T05:31:40.365Z,92579.00
2024-03-28T05:32:40.467Z,92579.00
2024-03-28T05:33:40.533Z,92585.00
2024-03-28T05:34:40.613Z,92581.00
2024-03-28T05:35:40.671Z,92579.00
2024-03-28T05:36:40.720Z,92585.00
2024-03-28T05:37:40.839Z,92584.00
2024-03-28T05:38:40.992Z,92585.00
2024-03-28T05:39:41.089Z,92588.00
2024-03-28T05:40:41.243Z,92588.00
2024-03-28T05:41:41.713Z,92578.00
2024-03-28T05:42:43.804Z,92594.00
2024-03-28T05:43:41.484Z,92585.00
2024-03-28T05:44:41.502Z,92592.00
2024-03-28T05:45:41.472Z,92603.00
2024-03-28T05:46:41.506Z,92602.00
2024-03-28T05:47:41.472Z,92584.00
2024-03-28T05:48:41.508Z,92582.00
2024-03-28T05:49:41.492Z,92592.00
2024-03-28T05:50:41.468Z,92601.00
2024-03-28T05:51:41.702Z,92595.00
2024-03-28T05:52:41.484Z,92587.00
2024-03-28T05:53:41.482Z,92590.00
2024-03-28T05:54:41.523Z,92596.00
2024-03-28T05:55:41.591Z,92593.00
2024-03-28T05:56:42.557Z,92597.00
2024-03-28T05:57:41.475Z,92590.00
2024-03-28T05:58:41.480Z,92589.00
2024-03-28T05:59:41.471Z,92599.00
2024-03-28T06:00:41.497Z,92609.00
2024-03-28T06:01:41.467Z,92606.00
2024-03-28T06:02:41.470Z,92602.00
2024-03-28T06:03:41.494Z,92594.00
2024-03-28T06:04:41.487Z,92609.00
2024-03-28T06:05:41.574Z,92612.00
2024-03-28T06:06:41.496Z,92599.00
2024-03-28T06:07:41.457Z,92607.00
2024-03-28T06:08:42.220Z,92612.00
2024-03-28T06:09:41.528Z,92619.00
2024-03-28T06:10:41.653Z,92611.00
2024-03-28T06:11:41.653Z,92604.00
2024-03-28T06:12:41.681Z,92605.00
2024-03-28T06:13:41.750Z,92608.00
2024-03-28T06:14:41.808Z,92600.00
2024-03-28T06:15:41.869Z,92601.00
2024-03-28T06:16:41.912Z,92596.00
2024-03-28T06:17:41.984Z,92600.00
2024-03-28T06:18:42.040Z,92602.00
2024-03-28T06:19:42.103Z,92601.00
2024-03-28T06:20:42.150Z,92608.00
2024-03-28T06:21:42.315Z,92613.00
2024-03-28T06:22:42.255Z,92615.00
2024-03-28T06:23:42.328Z,92610.00
2024-03-28T06:24:42.371Z,92602.00
2024-03-28T06:25:42.454Z,92612.00
2024-03-28T06:26:42.463Z,92622.00
2024-03-28T06:27:42.580Z,92617.00
2024-03-28T06:28:42.616Z,92617.00
2024-03-28T06:29:42.679Z,92623.00
2024-03-28T06:30:42.717Z,92622.00
2024-03-28T06:31:42.791Z,92630.00
2024-03-28T06:32:42.798Z,92637.00
2024-03-28T06:33:42.975Z,92639.00
2024-03-28T06:34:43.015Z,92635.00
2024-03-28T06:35:42.958Z,92636.00
2024-03-28T06:36:43.103Z,92630.00
2024-03-28T06:37:43.073Z,92630.00
2024-03-28T06:38:43.151Z,92636.00
2024-03-28T06:39:43.194Z,92641.00
2024-03-28T06:40:43.243Z,92641.00
2024-03-28T06:41:43.302Z,92633.00
2024-03-28T06:42:43.322Z,92631.00
2024-03-28T06:43:43.382Z,92637.00
2024-03-28T06:44:43.433Z,92638.00
2024-03-28T06:45:43.495Z,92637.00
2024-03-28T06:46:43.531Z,92641.00
2024-03-28T06:47:43.614Z,92637.00
2024-03-28T06:48:43.660Z,92623.00
2024-03-28T06:49:43.734Z,92626.00
2024-03-28T06:50:43.739Z,92620.00
2024-03-28T06:51:43.793Z,92609.00
2024-03-28T06:52:43.893Z,92606.00
2024-03-28T06:53:43.902Z,92607.00
2024-03-28T06:54:43.981Z,92606.00
2024-03-28T06:55:44.027Z,92611.00
2024-03-28T06:56:44.086Z,92598.00
2024-03-28T06:57:44.193Z,92600.00
2024-03-28T06:58:44.220Z,92600.00
2024-03-28T06:59:44.258Z,92598.00
2024-03-28T07:00:44.299Z,92598.00
2024-03-28T07:01:44.375Z,92589.00
2024-03-28T07:02:44.375Z,92588.00
2024-03-28T07:03:44.778Z,92596.00
2024-03-28T07:04:44.555Z,92597.00
2024-03-28T07:05:44.579Z,92587.00
2024-03-28T07:06:44.607Z,92580.00
2024-03-28T07:07:44.668Z,92570.00
2024-03-28T07:08:44.729Z,92581.00
2024-03-28T07:09:44.800Z,92599.00
2024-03-28T07:10:44.805Z,92592.00
2024-03-28T07:11:44.856Z,92583.00
2024-03-28T07:12:44.958Z,92583.00
2024-03-28T07:13:46.287Z,92575.00
2024-03-28T07:14:45.071Z,92574.00
2024-03-28T07:15:45.075Z,92581.00
2024-03-28T07:16:45.153Z,92581.00
2024-03-28T07:17:45.194Z,92558.00
2024-03-28T07:18:45.271Z,92564.00
2024-03-28T07:19:45.389Z,92591.00
2024-03-28T07:20:45.349Z,92600.00
2024-03-28T07:21:45.385Z,92580.00
2024-03-28T07:22:45.434Z,92565.00
2024-03-28T07:23:45.443Z,92556.00
2024-03-28T07:24:45.502Z,92569.00
2024-03-28T07:25:46.288Z,92569.00
2024-03-28T07:26:45.589Z,92562.00
2024-03-28T07:27:45.635Z,92575.00
2024-03-28T07:28:45.655Z,92580.00
2024-03-28T07:29:45.684Z,92583.00
2024-03-28T07:30:45.767Z,92576.00
2024-03-28T07:31:45.766Z,92577.00
2024-03-28T07:32:45.821Z,92569.00
2024-03-28T07:33:45.832Z,92573.00
2024-03-28T07:34:45.890Z,92569.00
2024-03-28T07:35:45.913Z,92571.00
2024-03-28T07:36:45.929Z,92564.00
2024-03-28T07:37:46.015Z,92572.00
2024-03-28T07:38:46.014Z,92580.00
2024-03-28T07:39:46.066Z,92549.00
2024-03-28T07:40:46.092Z,92549.00
2024-03-28T07:41:46.107Z,92547.00
2024-03-28T07:42:46.164Z,92542.00
2024-03-28T07:43:46.189Z,92547.00
2024-03-28T07:44:46.232Z,92548.00
2024-03-28T07:45:46.261Z,92558.00
2024-03-28T07:46:46.272Z,92546.00
2024-03-28T07:47:46.321Z,92547.00
2024-03-28T07:48:46.358Z,92549.00
2024-03-28T07:49:46.403Z,92541.00
2024-03-28T07:50:46.436Z,92555.00
2024-03-28T07:51:46.453Z,92562.00
2024-03-28T07:52:46.523Z,92560.00
2024-03-28T07:53:46.520Z,92548.00
2024-03-28T07:54:46.528Z,92567.00
2024-03-28T07:55:46.586Z,92584.00
2024-03-28T07:56:46.616Z,92581.00
2024-03-28T07:57:46.656Z,92558.00
2024-03-28T07:58:46.649Z,92574.00
2024-03-28T07:59:46.699Z,92568.00
2024-03-28T08:00:47.181Z,92558.00
2024-03-28T08:01:46.728Z,92573.00
2024-03-28T08:02:46.790Z,92566.00
2024-03-28T08:03:46.816Z,92563.00
2024-03-28T08:04:46.846Z,92559.00
2024-03-28T08:05:46.863Z,92574.00
2024-03-28T08:06:46.921Z,92575.00
2024-03-28T08:07:46.902Z,92563.00
2024-03-28T08:08:46.931Z,92576.00
2024-03-28T08:09:47.012Z,92568.00
2024-03-28T08:10:47.037Z,92570.00
2024-03-28T08:11:47.021Z,92570.00
2024-03-28T08:12:47.066Z,92569.00
2024-03-28T08:13:47.036Z,92578.00
2024-03-28T08:14:47.047Z,92580.00
2024-03-28T08:15:47.175Z,92571.00
2024-03-28T08:16:47.123Z,92543.00
2024-03-28T08:17:47.137Z,92553.00
2024-03-28T08:18:47.133Z,92559.00
2024-03-28T08:19:47.160Z,92561.00
2024-03-28T08:20:47.198Z,92561.00
2024-03-28T08:21:47.227Z,92561.00
2024-03-28T08:22:47.250Z,92546.00
2024-03-28T08:23:47.288Z,92538.00
2024-03-28T08:24:47.296Z,92554.00
2024-03-28T08:25:47.325Z,92545.00
2024-03-28T08:26:47.377Z,92556.00
2024-03-28T08:27:47.377Z,92563.00
2024-03-28T08:28:47.380Z,92576.00
2024-03-28T08:29:47.392Z,92544.00
2024-03-28T08:30:47.447Z,92546.00
2024-03-28T08:31:47.437Z,92575.00
2024-03-28T08:32:47.449Z,92556.00
2024-03-28T08:33:47.469Z,92563.00
2024-03-28T08:34:47.547Z,92566.00
2024-03-28T08:35:47.504Z,92558.00
2024-03-28T08:36:47.536Z,92554.00
2024-03-28T08:37:47.550Z,92554.00
2024-03-28T08:38:47.588Z,92552.00
2024-03-28T08:39:47.603Z,92564.00
2024-03-28T08:40:47.595Z,92558.00
2024-03-28T08:41:47.652Z,92569.00
2024-03-28T08:42:47.657Z,92558.00
2024-03-28T08:43:47.707Z,92558.00
2024-03-28T08:44:47.712Z,92561.00
2024-03-28T08:45:47.708Z,92551.00
2024-03-28T08:46:47.719Z,92576.00
2024-03-28T08:47:47.742Z,92556.00
2024-03-28T08:48:47.760Z,92570.00
2024-03-28T08:49:47.800Z,92583.00
2024-03-28T08:50:47.816Z,92544.00
2024-03-28T08:51:47.851Z,92545.00
2024-03-28T08:52:47.824Z,92565.00
2024-03-28T08:53:47.830Z,92558.00
2024-03-28T08:54:47.857Z,92566.00
2024-03-28T08:55:47.861Z,92567.00
2024-03-28T08:56:47.907Z,92569.00
2024-03-28T08:57:47.889Z,92582.00
2024-03-28T08:58:47.866Z,92569.00
2024-03-28T08:59:47.942Z,92555.00
2024-03-28T09:00:48.836Z,92556.00
2024-03-28T09:01:47.917Z,92545.00
2024-03-28T09:02:47.926Z,92578.00
2024-03-28T09:03:47.930Z,92576.00
2024-03-28T09:04:47.976Z,92560.00
2024-03-28T09:05:47.980Z,92553.00
2024-03-28T09:06:47.988Z,92565.00
2024-03-28T09:07:47.999Z,92545.00
2024-03-28T09:08:47.991Z,92562.00
2024-03-28T09:09:48.032Z,92572.00
2024-03-28T09:10:48.034Z,92582.00
2024-03-28T09:11:48.037Z,92584.00
2024-03-28T09:12:48.083Z,92560.00
2024-03-28T09:13:48.097Z,92585.00
2024-03-28T09:14:48.106Z,92545.00
2024-03-28T09:15:48.108Z,92565.00
2024-03-28T09:16:48.180Z,92559.00
2024-03-28T09:17:48.141Z,92575.00
2024-03-28T09:18:49.062Z,92581.00
2024-03-28T09:19:48.136Z,92556.00
2024-03-28T09:20:48.153Z,92567.00
2024-03-28T09:21:48.157Z,92580.00
2024-03-28T09:22:48.198Z,92577.00
2024-03-28T09:23:48.106Z,92569.00
2024-03-28T09:24:48.116Z,92580.00
2024-03-28T09:25:48.177Z,92573.00
2024-03-28T09:26:48.126Z,92560.00
2024-03-28T09:27:48.160Z,92561.00
2024-03-28T09:28:48.222Z,92566.00
2024-03-28T09:29:48.160Z,92584.00
2024-03-28T09:30:48.148Z,92570.00
2024-03-28T09:31:48.176Z,92566.00
2024-03-28T09:32:48.226Z,92572.00
2024-03-28T09:33:48.284Z,92592.00
2024-03-28T09:34:48.239Z,92606.00
2024-03-28T09:35:48.242Z,92584.00
2024-03-28T09:36:48.247Z,92565.00
2024-03-28T09:37:48.271Z,92575.00
2024-03-28T09:38:48.275Z,92549.00
2024-03-28T09:39:48.278Z,92572.00
2024-03-28T09:40:48.320Z,92560.00
2024-03-28T09:41:48.321Z,92562.00
2024-03-28T09:42:48.346Z,92590.00
2024-03-28T09:43:48.408Z,92593.00
2024-03-28T09:44:49.295Z,92604.00
2024-03-28T09:45:48.398Z,92597.00
2024-03-28T09:46:50.223Z,92580.00
2024-03-28T09:47:49.283Z,92581.00
2024-03-28T09:48:48.380Z,92586.00
2024-03-28T09:49:48.375Z,92584.00
2024-03-28T09:50:48.388Z,92585.00
2024-03-28T09:51:48.384Z,92586.00
2024-03-28T09:52:48.417Z,92588.00
2024-03-28T09:53:48.416Z,92590.00
2024-03-28T09:54:48.411Z,92591.00
2024-03-28T09:55:48.423Z,92599.00
2024-03-28T09:56:48.400Z,92607.00
2024-03-28T09:57:48.453Z,92614.00
2024-03-28T09:58:48.408Z,92606.00
2024-03-28T09:59:48.413Z,92609.00
2024-03-28T10:00:48.840Z,92606.00
2024-03-28T10:01:48.428Z,92600.00
2024-03-28T10:02:48.369Z,92611.00
2024-03-28T10:03:48.396Z,92623.00
2024-03-28T10:04:48.397Z,92616.00
2024-03-28T10:05:48.457Z,92601.00
2024-03-28T10:06:48.394Z,92605.00
2024-03-28T10:07:48.409Z,92597.00
2024-03-28T10:08:48.417Z,92599.00
2024-03-28T10:09:48.430Z,92599.00
2024-03-28T10:10:48.409Z,92588.00
2024-03-28T10:11:48.427Z,92614.00
2024-03-28T10:12:48.425Z,92613.00
2024-03-28T10:13:48.453Z,92590.00
2024-03-28T10:14:48.457Z,92586.00
2024-03-28T10:15:48.492Z,92596.00
2024-03-28T10:16:48.427Z,92606.00
2024-03-28T10:17:48.445Z,92598.00
2024-03-28T10:18:48.440Z,92612.00
2024-03-28T10:19:48.477Z,92594.00
2024-03-28T10:20:48.458Z,92591.00
2024-03-28T10:21:48.502Z,92596.00
2024-03-28T10:22:48.471Z,92591.00
2024-03-28T10:23:48.414Z,92612.00
2024-03-28T10:24:48.497Z,92620.00
2024-03-28T10:25:48.543Z,92583.00
2024-03-28T10:26:48.438Z,92585.00
2024-03-28T10:27:48.437Z,92601.00
2024-03-28T10:28:48.517Z,92613.00
2024-03-28T10:29:48.718Z,92613.00
2024-03-28T10:30:48.658Z,92613.00
2024-03-28T10:31:49.350Z,92592.00
2024-03-28T10:32:48.783Z,92606.00
2024-03-28T10:33:48.860Z,92587.00
2024-03-28T10:34:49.859Z,92609.00
2024-03-28T10:35:49.015Z,92623.00
2024-03-28T10:36:49.069Z,92608.00
2024-03-28T10:37:56.292Z,92599.00
2024-03-28T10:38:50.111Z,92605.00
2024-03-28T10:39:49.104Z,92625.00
2024-03-28T10:40:49.110Z,92623.00
2024-03-28T10:41:49.110Z,92613.00
2024-03-28T10:42:49.119Z,92610.00
2024-03-28T10:43:49.132Z,92602.00
2024-03-28T10:44:49.136Z,92639.00
2024-03-28T10:45:49.256Z,92631.00
2024-03-28T10:46:49.202Z,92627.00
2024-03-28T10:47:49.257Z,92626.00
2024-03-28T10:48:49.320Z,92628.00
2024-03-28T10:49:51.275Z,92603.00
2024-03-28T10:50:49.479Z,92630.00
2024-03-28T10:51:49.504Z,92649.00
2024-03-28T10:52:49.546Z,92615.00
2024-03-28T10:53:49.633Z,92624.00
2024-03-28T10:54:49.616Z,92644.00
2024-03-28T10:55:49.721Z,92645.00
2024-03-28T10:56:49.676Z,92648.00
2024-03-28T10:57:49.739Z,92649.00
2024-03-28T10:58:49.743Z,92621.00
2024-03-28T10:59:49.869Z,92629.00
2024-03-28T11:00:53.346Z,92658.00
2024-03-28T11:01:50.889Z,92660.00
2024-03-28T11:02:49.928Z,92621.00
2024-03-28T11:03:49.882Z,92633.00
2024-03-28T11:04:49.881Z,92630.00
2024-03-28T11:05:49.889Z,92646.00
2024-03-28T11:06:49.904Z,92648.00
2024-03-28T11:07:49.913Z,92636.00
2024-03-28T11:08:49.874Z,92617.00
2024-03-28T11:09:49.922Z,92614.00
2024-03-28T11:10:49.963Z,92614.00
2024-03-28T11:11:50.036Z,92618.00
2024-03-28T11:12:50.052Z,92639.00
2024-03-28T11:13:52.534Z,92654.00
2024-03-28T11:14:50.081Z,92654.00
2024-03-28T11:15:50.069Z,92641.00
2024-03-28T11:16:50.109Z,92645.00
2024-03-28T11:17:50.120Z,92648.00
2024-03-28T11:18:50.095Z,92671.00
2024-03-28T11:19:50.093Z,92635.00
2024-03-28T11:20:50.097Z,92638.00
2024-03-28T11:21:50.106Z,92641.00
2024-03-28T11:22:50.119Z,92644.00
2024-03-28T11:23:50.130Z,92619.00
2024-03-28T11:24:50.128Z,92620.00
2024-03-28T11:25:50.135Z,92611.00
2024-03-28T11:26:50.079Z,92618.00
2024-03-28T11:27:50.138Z,92626.00
2024-03-28T11:28:50.168Z,92632.00
2024-03-28T11:29:50.160Z,92626.00
2024-03-28T11:30:50.118Z,92625.00
2024-03-28T11:31:50.120Z,92641.00
2024-03-28T11:32:50.386Z,92629.00
2024-03-28T11:33:50.128Z,92634.00
2024-03-28T11:34:50.100Z,92624.00
2024-03-28T11:35:50.300Z,92630.00
2024-03-28T11:36:50.116Z,92633.00
2024-03-28T11:37:50.112Z,92637.00
2024-03-28T11:38:50.134Z,92656.00
2024-03-28T11:39:50.123Z,92650.00
2024-03-28T11:40:50.142Z,92645.00
2024-03-28T11:41:50.292Z,92640.00
2024-03-28T11:42:50.392Z,92636.00
2024-03-28T11:43:50.306Z,92661.00
2024-03-28T11:44:50.397Z,92662.00